createdAt,value
2022-11-20T00:00:14.856Z,87.90
2022-11-20T00:01:14.845Z,87.65
2022-11-20T00:02:14.957Z,87.68
2022-11-20T00:03:14.828Z,88.00
2022-11-20T00:04:14.812Z,87.68
2022-11-20T00:05:14.808Z,87.79
2022-11-20T00:06:14.792Z,87.27
2022-11-20T00:07:14.858Z,86.95
2022-11-20T00:08:14.803Z,86.85
2022-11-20T00:09:14.765Z,86.32
2022-11-20T00:10:14.749Z,86.46
2022-11-20T00:11:16.087Z,86.63
2022-11-20T00:12:14.728Z,87.05
2022-11-20T00:13:14.726Z,87.05
2022-11-20T00:14:14.711Z,87.10
2022-11-20T00:15:14.698Z,87.41
2022-11-20T00:16:14.704Z,86.95
2022-11-20T00:17:14.678Z,87.37
2022-11-20T00:18:14.664Z,87.16
2022-11-20T00:19:14.665Z,87.20
2022-11-20T00:20:14.641Z,87.41
2022-11-20T00:21:14.636Z,87.20
2022-11-20T00:22:14.629Z,87.10
2022-11-20T00:23:14.638Z,87.30
2022-11-20T00:24:14.607Z,87.10
2022-11-20T00:25:14.606Z,87.10
2022-11-20T00:26:14.581Z,87.30
2022-11-20T00:27:14.569Z,87.20
2022-11-20T00:28:14.566Z,87.41
2022-11-20T00:29:14.565Z,87.20
2022-11-20T00:30:15.190Z,87.10
2022-11-20T00:31:14.533Z,86.95
2022-11-20T00:32:14.519Z,87.41
2022-11-20T00:33:14.514Z,87.10
2022-11-20T00:34:14.502Z,86.57
2022-11-20T00:35:14.490Z,86.29
2022-11-20T00:36:14.491Z,86.78
2022-11-20T00:37:14.474Z,86.93
2022-11-20T00:38:14.453Z,86.93
2022-11-20T00:39:14.462Z,86.93
2022-11-20T00:40:14.434Z,86.88
2022-11-20T00:41:14.431Z,86.88
2022-11-20T00:42:14.423Z,86.71
2022-11-20T00:43:14.407Z,86.78
2022-11-20T00:44:14.383Z,86.78
2022-11-20T00:45:14.381Z,86.68
2022-11-20T00:46:14.380Z,86.88
2022-11-20T00:47:14.358Z,86.88
2022-11-20T00:48:14.351Z,86.46
2022-11-20T00:49:14.333Z,86.78
2022-11-20T00:50:14.321Z,86.68
2022-11-20T00:51:14.325Z,86.68
2022-11-20T00:52:14.315Z,86.88
2022-11-20T00:53:14.291Z,87.20
2022-11-20T00:54:14.273Z,87.52
2022-11-20T00:55:14.295Z,87.41
2022-11-20T00:56:14.285Z,87.10
2022-11-20T00:57:14.252Z,87.20
2022-11-20T00:58:14.611Z,87.20
2022-11-20T00:59:14.235Z,87.10
2022-11-20T01:00:14.220Z,87.03
2022-11-20T01:01:14.251Z,87.20
2022-11-20T01:02:14.200Z,87.35
2022-11-20T01:03:14.186Z,87.20
2022-11-20T01:04:14.171Z,87.13
2022-11-20T01:05:14.173Z,86.78
2022-11-20T01:06:14.157Z,87.45
2022-11-20T01:07:14.173Z,87.20
2022-11-20T01:08:14.133Z,87.66
2022-11-20T01:09:14.117Z,87.93
2022-11-20T01:10:14.111Z,87.98
2022-11-20T01:11:14.130Z,87.83
2022-11-20T01:12:14.084Z,87.62
2022-11-20T01:13:14.077Z,87.76
2022-11-20T01:14:14.077Z,87.52
2022-11-20T01:15:14.053Z,87.55
2022-11-20T01:16:14.042Z,87.73
2022-11-20T01:17:14.052Z,87.93
2022-11-20T01:18:14.031Z,88.57
2022-11-20T01:19:17.654Z,88.92
2022-11-20T01:20:14.014Z,88.60
2022-11-20T01:21:13.989Z,88.92
2022-11-20T01:22:13.992Z,88.50
2022-11-20T01:23:13.972Z,88.08
2022-11-20T01:24:13.966Z,87.98
2022-11-20T01:25:13.952Z,88.02
2022-11-20T01:26:13.950Z,87.60
2022-11-20T01:27:13.935Z,88.02
2022-11-20T01:28:13.916Z,88.75
2022-11-20T01:29:13.903Z,88.02
2022-11-20T01:30:13.892Z,88.54
2022-11-20T01:31:13.886Z,88.65
2022-11-20T01:32:13.884Z,88.54
2022-11-20T01:33:13.881Z,88.65
2022-11-20T01:34:13.848Z,87.87
2022-11-20T01:35:13.839Z,88.60
2022-11-20T01:36:13.825Z,88.40
2022-11-20T01:37:13.820Z,88.60
2022-11-20T01:38:13.817Z,88.60
2022-11-20T01:39:13.798Z,88.60
2022-11-20T01:40:13.791Z,88.82
2022-11-20T01:41:13.779Z,87.87
2022-11-20T01:42:13.821Z,88.12
2022-11-20T01:43:13.753Z,87.98
2022-11-20T01:44:13.742Z,87.76
2022-11-20T01:45:13.732Z,87.76
2022-11-20T01:46:13.721Z,87.91
2022-11-20T01:47:13.730Z,87.76
2022-11-20T01:48:13.713Z,87.98
2022-11-20T01:49:13.697Z,88.33
2022-11-20T01:50:13.678Z,88.40
2022-11-20T01:51:13.669Z,87.87
2022-11-20T01:52:13.664Z,87.38
2022-11-20T01:53:13.657Z,87.49
2022-11-20T01:54:13.633Z,87.07
2022-11-20T01:55:13.630Z,87.07
2022-11-20T01:56:13.610Z,87.60
2022-11-20T01:57:13.614Z,87.49
2022-11-20T01:58:13.599Z,87.49
2022-11-20T01:59:13.598Z,87.49
2022-11-20T02:00:13.569Z,86.86
2022-11-20T02:01:13.662Z,87.42
2022-11-20T02:02:13.552Z,87.38
2022-11-20T02:03:13.534Z,87.07
2022-11-20T02:04:13.566Z,87.18
2022-11-20T02:05:13.530Z,87.11
2022-11-20T02:06:13.505Z,87.32
2022-11-20T02:07:13.579Z,87.00
2022-11-20T02:08:13.484Z,87.21
2022-11-20T02:09:13.486Z,87.21
2022-11-20T02:10:13.482Z,87.32
2022-11-20T02:11:13.462Z,87.32
2022-11-20T02:12:13.450Z,87.32
2022-11-20T02:13:13.431Z,87.32
2022-11-20T02:14:13.422Z,87.32
2022-11-20T02:15:13.423Z,87.21
2022-11-20T02:16:13.410Z,87.21
2022-11-20T02:17:13.410Z,87.21
2022-11-20T02:18:13.378Z,87.21
2022-11-20T02:19:13.368Z,86.90
2022-11-20T02:20:13.368Z,86.69
2022-11-20T02:21:13.370Z,86.79
2022-11-20T02:22:13.340Z,86.58
2022-11-20T02:23:13.324Z,86.58
2022-11-20T02:24:13.322Z,87.21
2022-11-20T02:25:13.305Z,87.32
2022-11-20T02:26:13.310Z,87.42
2022-11-20T02:27:13.290Z,87.53
2022-11-20T02:28:13.278Z,87.53
2022-11-20T02:29:13.261Z,87.53
2022-11-20T02:30:13.250Z,87.53
2022-11-20T02:31:13.239Z,87.32
2022-11-20T02:32:13.248Z,87.32
2022-11-20T02:33:13.220Z,87.42
2022-11-20T02:34:13.217Z,87.21
2022-11-20T02:35:13.197Z,87.32
2022-11-20T02:36:13.189Z,87.21
2022-11-20T02:37:13.176Z,87.21
2022-11-20T02:38:13.174Z,87.32
2022-11-20T02:39:13.159Z,87.11
2022-11-20T02:40:13.146Z,87.00
2022-11-20T02:41:13.141Z,87.32
2022-11-20T02:42:13.164Z,87.32
2022-11-20T02:43:13.113Z,87.11
2022-11-20T02:44:13.101Z,87.21
2022-11-20T02:45:13.094Z,87.11
2022-11-20T02:46:13.089Z,87.00
2022-11-20T02:47:13.068Z,86.69
2022-11-20T02:48:13.065Z,86.58
2022-11-20T02:49:13.049Z,86.69
2022-11-20T02:50:13.070Z,87.00
2022-11-20T02:51:13.027Z,87.11
2022-11-20T02:52:13.018Z,87.21
2022-11-20T02:53:13.011Z,87.21
2022-11-20T02:54:12.996Z,87.11
2022-11-20T02:55:12.995Z,87.42
2022-11-20T02:56:12.975Z,87.11
2022-11-20T02:57:12.972Z,87.42
2022-11-20T02:58:12.972Z,87.21
2022-11-20T02:59:12.944Z,87.11
2022-11-20T03:00:12.945Z,87.00
2022-11-20T03:01:12.984Z,86.83
2022-11-20T03:02:12.921Z,86.69
2022-11-20T03:03:12.895Z,86.62
2022-11-20T03:04:12.894Z,86.52
2022-11-20T03:05:12.872Z,86.58
2022-11-20T03:06:12.869Z,86.41
2022-11-20T03:07:12.907Z,87.00
2022-11-20T03:08:12.853Z,86.69
2022-11-20T03:09:12.866Z,86.83
2022-11-20T03:10:12.825Z,87.11
2022-11-20T03:11:12.805Z,86.72
2022-11-20T03:12:12.819Z,86.62
2022-11-20T03:13:12.786Z,86.83
2022-11-20T03:14:12.778Z,86.24
2022-11-20T03:15:12.810Z,86.52
2022-11-20T03:16:12.760Z,87.19
2022-11-20T03:17:12.759Z,86.77
2022-11-20T03:18:12.739Z,86.66
2022-11-20T03:19:12.724Z,87.19
2022-11-20T03:20:12.725Z,87.29
2022-11-20T03:21:12.705Z,87.25
2022-11-20T03:22:12.727Z,88.13
2022-11-20T03:23:12.680Z,88.24
2022-11-20T03:24:12.681Z,87.61
2022-11-20T03:25:12.661Z,87.82
2022-11-20T03:26:12.652Z,87.65
2022-11-20T03:27:12.651Z,88.28
2022-11-20T03:28:12.640Z,88.60
2022-11-20T03:29:12.626Z,88.70
2022-11-20T03:30:12.621Z,89.44
2022-11-20T03:31:12.596Z,89.29
2022-11-20T03:32:12.624Z,88.81
2022-11-20T03:33:12.580Z,88.87
2022-11-20T03:34:12.568Z,88.77
2022-11-20T03:35:12.553Z,88.98
2022-11-20T03:36:12.552Z,89.40
2022-11-20T03:37:12.532Z,88.28
2022-11-20T03:38:12.541Z,88.81
2022-11-20T03:39:12.516Z,88.81
2022-11-20T03:40:12.502Z,88.92
2022-11-20T03:41:12.506Z,88.70
2022-11-20T03:42:12.482Z,88.60
2022-11-20T03:43:12.473Z,88.60
2022-11-20T03:44:12.480Z,88.60
2022-11-20T03:45:12.443Z,88.60
2022-11-20T03:46:12.447Z,88.07
2022-11-20T03:47:12.428Z,88.70
2022-11-20T03:48:12.413Z,88.28
2022-11-20T03:49:12.401Z,88.81
2022-11-20T03:50:12.400Z,88.81
2022-11-20T03:51:12.405Z,88.77
2022-11-20T03:52:12.377Z,88.13
2022-11-20T03:53:12.360Z,88.45
2022-11-20T03:54:12.368Z,88.81
2022-11-20T03:55:12.342Z,88.56
2022-11-20T03:56:12.346Z,88.98
2022-11-20T03:57:12.339Z,88.77
2022-11-20T03:58:12.307Z,88.87
2022-11-20T03:59:12.312Z,87.93
2022-11-20T04:00:12.309Z,88.13
2022-11-20T04:01:12.290Z,87.65
2022-11-20T04:02:12.348Z,87.65
2022-11-20T04:03:12.249Z,87.65
2022-11-20T04:04:12.257Z,87.76
2022-11-20T04:05:12.253Z,87.44
2022-11-20T04:06:12.221Z,87.33
2022-11-20T04:07:12.277Z,87.44
2022-11-20T04:08:12.233Z,87.33
2022-11-20T04:09:12.199Z,87.23
2022-11-20T04:10:12.189Z,87.33
2022-11-20T04:11:12.184Z,87.33
2022-11-20T04:12:12.162Z,87.33
2022-11-20T04:13:12.142Z,87.33
2022-11-20T04:14:12.142Z,87.50
2022-11-20T04:15:12.122Z,87.23
2022-11-20T04:16:12.133Z,87.33
2022-11-20T04:17:12.106Z,87.12
2022-11-20T04:18:12.092Z,86.66
2022-11-20T04:19:12.076Z,86.80
2022-11-20T04:20:12.100Z,86.91
2022-11-20T04:21:12.054Z,86.59
2022-11-20T04:22:12.055Z,86.59
2022-11-20T04:23:12.030Z,87.02
2022-11-20T04:24:12.023Z,87.02
2022-11-20T04:25:12.031Z,86.80
2022-11-20T04:26:12.012Z,87.02
2022-11-20T04:27:11.994Z,87.12
2022-11-20T04:28:12.011Z,87.12
2022-11-20T04:29:11.967Z,87.23
2022-11-20T04:30:11.964Z,87.12
2022-11-20T04:31:11.977Z,87.02
2022-11-20T04:32:11.943Z,86.70
2022-11-20T04:33:11.931Z,86.70
2022-11-20T04:34:11.915Z,87.23
2022-11-20T04:35:11.919Z,87.44
2022-11-20T04:36:11.895Z,87.29
2022-11-20T04:37:11.927Z,87.50
2022-11-20T04:38:11.869Z,87.61
2022-11-20T04:39:11.860Z,87.50
2022-11-20T04:40:11.851Z,87.54
2022-11-20T04:41:11.837Z,87.54
2022-11-20T04:42:11.843Z,87.54
2022-11-20T04:43:11.825Z,87.23
2022-11-20T04:44:11.810Z,87.02
2022-11-20T04:45:11.803Z,87.44
2022-11-20T04:46:11.783Z,87.61
2022-11-20T04:47:11.785Z,87.02
2022-11-20T04:48:11.764Z,87.23
2022-11-20T04:49:11.848Z,87.54
2022-11-20T04:50:11.747Z,87.86
2022-11-20T04:51:11.732Z,87.33
2022-11-20T04:52:11.739Z,87.44
2022-11-20T04:53:11.730Z,87.44
2022-11-20T04:54:11.701Z,87.33
2022-11-20T04:55:11.686Z,87.61
2022-11-20T04:56:11.691Z,87.33
2022-11-20T04:57:14.647Z,87.44
2022-11-20T04:58:11.656Z,87.54
2022-11-20T04:59:11.669Z,87.44
2022-11-20T05:00:11.637Z,87.65
2022-11-20T05:01:11.675Z,87.44
2022-11-20T05:02:11.612Z,87.54
2022-11-20T05:03:11.602Z,87.65
2022-11-20T05:04:11.609Z,87.54
2022-11-20T05:05:11.615Z,87.76
2022-11-20T05:06:11.577Z,87.23
2022-11-20T05:07:11.624Z,87.65
2022-11-20T05:08:11.549Z,87.23
2022-11-20T05:09:11.531Z,87.79
2022-11-20T05:10:11.547Z,87.12
2022-11-20T05:11:11.526Z,87.65
2022-11-20T05:12:11.507Z,87.86
2022-11-20T05:13:11.491Z,87.65
2022-11-20T05:14:11.481Z,87.37
2022-11-20T05:15:11.484Z,87.23
2022-11-20T05:16:11.471Z,87.65
2022-11-20T05:17:11.457Z,87.16
2022-11-20T05:18:11.449Z,87.69
2022-11-20T05:19:11.423Z,87.58
2022-11-20T05:20:11.414Z,87.58
2022-11-20T05:21:11.417Z,87.44
2022-11-20T05:22:11.398Z,87.23
2022-11-20T05:23:11.386Z,87.58
2022-11-20T05:24:11.383Z,87.44
2022-11-20T05:25:11.362Z,87.65
2022-11-20T05:26:11.394Z,87.54
2022-11-20T05:27:11.342Z,87.65
2022-11-20T05:28:11.337Z,87.58
2022-11-20T05:29:11.328Z,87.37
2022-11-20T05:30:11.326Z,87.48
2022-11-20T05:31:11.316Z,87.27
2022-11-20T05:32:11.290Z,87.54
2022-11-20T05:33:11.287Z,87.48
2022-11-20T05:34:11.265Z,87.27
2022-11-20T05:35:11.263Z,87.58
2022-11-20T05:36:11.270Z,87.58
2022-11-20T05:37:11.238Z,87.54
2022-11-20T05:38:11.219Z,87.44
2022-11-20T05:39:11.240Z,87.54
2022-11-20T05:40:11.201Z,87.69
2022-11-20T05:41:11.205Z,87.44
2022-11-20T05:42:11.178Z,87.54
2022-11-20T05:43:11.174Z,87.65
2022-11-20T05:44:11.160Z,87.44
2022-11-20T05:45:11.151Z,87.69
2022-11-20T05:46:11.141Z,87.37
2022-11-20T05:47:11.137Z,87.16
2022-11-20T05:48:11.118Z,87.27
2022-11-20T05:49:11.103Z,87.69
2022-11-20T05:50:11.094Z,88.21
2022-11-20T05:51:11.100Z,88.11
2022-11-20T05:52:11.081Z,88.75
2022-11-20T05:53:11.055Z,88.95
2022-11-20T05:54:11.048Z,88.95
2022-11-20T05:55:11.040Z,88.95
2022-11-20T05:56:11.074Z,88.81
2022-11-20T05:57:11.013Z,88.85
2022-11-20T05:58:11.006Z,88.85
2022-11-20T05:59:11.006Z,88.85
2022-11-20T06:00:10.984Z,88.81
2022-11-20T06:01:10.967Z,88.28
2022-11-20T06:02:10.973Z,88.70
2022-11-20T06:03:10.958Z,88.64
2022-11-20T06:04:10.945Z,88.75
2022-11-20T06:05:10.927Z,88.85
2022-11-20T06:06:10.935Z,88.60
2022-11-20T06:07:10.992Z,88.75
2022-11-20T06:08:10.896Z,88.70
2022-11-20T06:09:10.889Z,88.75
2022-11-20T06:10:10.880Z,88.75
2022-11-20T06:11:10.881Z,88.85
2022-11-20T06:12:10.858Z,88.95
2022-11-20T06:13:10.849Z,88.92
2022-11-20T06:14:10.843Z,89.02
2022-11-20T06:15:10.836Z,88.81
2022-11-20T06:16:10.818Z,89.12
2022-11-20T06:17:10.802Z,89.06
2022-11-20T06:18:10.810Z,88.70
2022-11-20T06:19:10.796Z,88.85
2022-11-20T06:20:10.770Z,88.70
2022-11-20T06:21:10.750Z,88.85
2022-11-20T06:22:10.783Z,88.64
2022-11-20T06:23:10.756Z,88.70
2022-11-20T06:24:10.725Z,88.85
2022-11-20T06:25:10.712Z,88.92
2022-11-20T06:26:10.714Z,88.53
2022-11-20T06:27:10.692Z,87.86
2022-11-20T06:28:10.686Z,88.18
2022-11-20T06:29:10.704Z,87.90
2022-11-20T06:30:10.654Z,88.18
2022-11-20T06:31:10.648Z,88.07
2022-11-20T06:32:10.631Z,88.21
2022-11-20T06:33:10.640Z,87.90
2022-11-20T06:34:10.640Z,87.79
2022-11-20T06:35:10.604Z,87.58
2022-11-20T06:36:11.227Z,87.79
2022-11-20T06:37:10.585Z,87.79
2022-11-20T06:38:10.622Z,87.48
2022-11-20T06:39:10.566Z,87.58
2022-11-20T06:40:10.551Z,87.69
2022-11-20T06:41:10.544Z,87.37
2022-11-20T06:42:10.534Z,86.74
2022-11-20T06:43:10.526Z,86.78
2022-11-20T06:44:10.529Z,86.88
2022-11-20T06:45:10.492Z,87.09
2022-11-20T06:46:10.479Z,87.09
2022-11-20T06:47:10.474Z,87.05
2022-11-20T06:48:10.473Z,86.53
2022-11-20T06:49:10.466Z,86.67
2022-11-20T06:50:10.458Z,86.78
2022-11-20T06:51:10.431Z,86.67
2022-11-20T06:52:10.441Z,86.78
2022-11-20T06:53:10.406Z,86.95
2022-11-20T06:54:10.419Z,87.20
2022-11-20T06:55:10.387Z,86.88
2022-11-20T06:56:10.384Z,86.88
2022-11-20T06:57:10.371Z,87.16
2022-11-20T06:58:10.359Z,87.16
2022-11-20T06:59:10.353Z,86.84
2022-11-20T07:00:10.343Z,86.88
2022-11-20T07:01:10.348Z,86.84
2022-11-20T07:02:10.310Z,86.99
2022-11-20T07:03:10.319Z,86.88
2022-11-20T07:04:10.307Z,86.74
2022-11-20T07:05:10.300Z,86.95
2022-11-20T07:06:10.263Z,86.84
2022-11-20T07:07:10.320Z,87.09
2022-11-20T07:08:10.243Z,87.16
2022-11-20T07:09:12.836Z,87.37
2022-11-20T07:10:10.242Z,87.48
2022-11-20T07:11:10.233Z,87.58
2022-11-20T07:12:10.219Z,87.62
2022-11-20T07:13:10.194Z,87.69
2022-11-20T07:14:10.180Z,87.58
2022-11-20T07:15:10.169Z,87.69
2022-11-20T07:16:10.173Z,87.27
2022-11-20T07:17:10.153Z,87.48
2022-11-20T07:18:10.136Z,87.48
2022-11-20T07:19:10.148Z,87.48
2022-11-20T07:20:10.118Z,87.48
2022-11-20T07:21:10.138Z,87.79
2022-11-20T07:22:10.090Z,87.54
2022-11-20T07:23:10.083Z,87.69
2022-11-20T07:24:10.105Z,87.69
2022-11-20T07:25:10.059Z,87.65
2022-11-20T07:26:10.051Z,87.58
2022-11-20T07:27:10.046Z,87.37
2022-11-20T07:28:10.037Z,87.54
2022-11-20T07:29:10.021Z,87.54
2022-11-20T07:30:10.021Z,87.86
2022-11-20T07:31:13.392Z,87.96
2022-11-20T07:32:09.986Z,88.18
2022-11-20T07:33:10.001Z,87.96
2022-11-20T07:34:09.983Z,87.96
2022-11-20T07:35:09.956Z,88.28
2022-11-20T07:36:09.944Z,88.92
2022-11-20T07:37:10.612Z,88.70
2022-11-20T07:38:09.918Z,88.81
2022-11-20T07:39:09.913Z,87.96
2022-11-20T07:40:09.895Z,88.07
2022-11-20T07:41:09.951Z,88.07
2022-11-20T07:42:09.873Z,88.77
2022-11-20T07:43:09.864Z,88.56
2022-11-20T07:44:09.864Z,88.77
2022-11-20T07:45:09.863Z,88.77
2022-11-20T07:46:09.841Z,88.77
2022-11-20T07:47:09.824Z,88.77
2022-11-20T07:48:09.827Z,88.66
2022-11-20T07:49:09.819Z,88.66
2022-11-20T07:50:09.784Z,88.56
2022-11-20T07:51:09.793Z,88.73
2022-11-20T07:52:09.786Z,88.31
2022-11-20T07:53:09.757Z,88.41
2022-11-20T07:54:09.743Z,88.73
2022-11-20T07:55:09.750Z,88.83
2022-11-20T07:56:09.722Z,88.90
2022-11-20T07:57:09.716Z,89.00
2022-11-20T07:58:09.698Z,89.32
2022-11-20T07:59:09.721Z,89.32
2022-11-20T08:00:09.695Z,89.22
2022-11-20T08:01:09.789Z,88.79
2022-11-20T08:02:09.663Z,88.79
2022-11-20T08:03:09.650Z,88.79
2022-11-20T08:04:09.639Z,89.00
2022-11-20T08:05:09.646Z,89.22
2022-11-20T08:06:09.610Z,88.69
2022-11-20T08:07:09.636Z,88.86
2022-11-20T08:08:09.589Z,88.65
2022-11-20T08:09:09.582Z,88.86
2022-11-20T08:10:09.605Z,88.82
2022-11-20T08:11:09.560Z,88.99
2022-11-20T08:12:09.554Z,89.14
2022-11-20T08:13:09.561Z,89.51
2022-11-20T08:14:09.542Z,89.47
2022-11-20T08:15:13.143Z,89.01
2022-11-20T08:16:09.530Z,89.25
2022-11-20T08:17:09.496Z,88.89
2022-11-20T08:18:36.814Z,88.49
2022-11-20T08:19:10.486Z,87.20
2022-11-20T08:20:09.462Z,86.28
2022-11-20T08:21:09.461Z,85.02
2022-11-20T08:22:09.458Z,83.62
2022-11-20T08:23:09.453Z,82.78
2022-11-20T08:24:09.436Z,82.01
2022-11-20T08:25:09.409Z,81.24
2022-11-20T08:26:09.432Z,80.16
2022-11-20T08:27:09.389Z,79.71
2022-11-20T08:28:18.752Z,78.66
2022-11-20T08:29:10.382Z,78.52
2022-11-20T08:30:09.371Z,77.48
2022-11-20T08:31:09.363Z,76.06
2022-11-20T08:32:09.331Z,74.53
2022-11-20T08:33:09.327Z,72.73
2022-11-20T08:34:10.277Z,71.94
2022-11-20T08:35:09.313Z,71.77
2022-11-20T08:36:09.303Z,70.39
2022-11-20T08:37:09.279Z,68.59
2022-11-20T08:38:09.359Z,68.07
2022-11-20T08:39:09.259Z,68.10
2022-11-20T08:40:09.241Z,68.10
2022-11-20T08:41:09.266Z,68.62
2022-11-20T08:42:09.228Z,68.59
2022-11-20T08:43:09.209Z,67.63
2022-11-20T08:44:09.198Z,67.60
2022-11-20T08:45:09.190Z,66.87
2022-11-20T08:46:09.193Z,66.25
2022-11-20T08:47:09.174Z,66.87
2022-11-20T08:48:09.154Z,68.40
2022-11-20T08:49:09.144Z,67.98
2022-11-20T08:50:09.128Z,67.09
2022-11-20T08:51:09.158Z,66.26
2022-11-20T08:52:09.104Z,66.16
2022-11-20T08:53:09.122Z,65.85
2022-11-20T08:54:09.086Z,65.85
2022-11-20T08:55:09.080Z,66.19
2022-11-20T08:56:09.064Z,66.02
2022-11-20T08:57:09.079Z,67.15
2022-11-20T08:58:09.044Z,67.00
2022-11-20T08:59:50.828Z,68.10
2022-11-20T09:00:10.247Z,70.10
2022-11-20T09:01:09.031Z,70.31
2022-11-20T09:02:09.022Z,70.87
2022-11-20T09:03:08.991Z,71.73
2022-11-20T09:04:08.976Z,72.14
2022-11-20T09:05:08.977Z,72.90
2022-11-20T09:06:08.952Z,73.56
2022-11-20T09:07:08.992Z,74.43
2022-11-20T09:08:08.955Z,75.09
2022-11-20T09:09:08.931Z,74.77
2022-11-20T09:10:25.037Z,76.02
2022-11-20T09:11:09.901Z,76.26
2022-11-20T09:12:08.885Z,77.20
2022-11-20T09:13:08.889Z,77.09
2022-11-20T09:14:08.888Z,77.30
2022-11-20T09:15:08.852Z,77.72
2022-11-20T09:16:08.848Z,77.40
2022-11-20T09:17:08.840Z,77.75
2022-11-20T09:18:08.829Z,78.94
2022-11-20T09:19:36.683Z,79.25
2022-11-20T09:20:09.800Z,79.21
2022-11-20T09:21:08.967Z,80.05
2022-11-20T09:22:08.792Z,79.14
2022-11-20T09:23:08.789Z,79.80
2022-11-20T09:24:08.770Z,80.12
2022-11-20T09:25:08.748Z,80.54
2022-11-20T09:26:08.735Z,80.99
2022-11-20T09:27:08.725Z,81.05
2022-11-20T09:28:08.712Z,80.85
2022-11-20T09:29:08.713Z,81.58
2022-11-20T09:30:08.719Z,81.16
2022-11-20T09:31:08.678Z,81.26
2022-11-20T09:32:08.667Z,81.16
2022-11-20T09:33:08.662Z,81.43
2022-11-20T09:34:08.648Z,81.26
2022-11-20T09:35:08.654Z,81.37
2022-11-20T09:36:08.623Z,81.58
2022-11-20T09:37:08.616Z,82.20
2022-11-20T09:38:08.624Z,82.65
2022-11-20T09:39:08.597Z,82.14
2022-11-20T09:40:08.612Z,82.10
2022-11-20T09:41:08.578Z,82.62
2022-11-20T09:42:08.559Z,82.20
2022-11-20T09:43:08.554Z,83.39
2022-11-20T09:44:08.536Z,83.56
2022-11-20T09:45:08.543Z,83.76
2022-11-20T09:46:08.514Z,83.87
2022-11-20T09:47:08.510Z,83.76
2022-11-20T09:48:08.494Z,83.66
2022-11-20T09:49:08.487Z,83.35
2022-11-20T09:50:08.486Z,83.25
2022-11-20T09:51:08.473Z,83.04
2022-11-20T09:52:08.448Z,83.66
2022-11-20T09:53:08.445Z,83.80
2022-11-20T09:54:08.429Z,84.12
2022-11-20T09:55:08.435Z,83.87
2022-11-20T09:56:08.447Z,84.53
2022-11-20T09:57:08.404Z,84.12
2022-11-20T09:58:08.383Z,84.53
2022-11-20T09:59:08.373Z,84.12
2022-11-20T10:00:08.359Z,84.43
2022-11-20T10:01:08.425Z,84.84
2022-11-20T10:02:08.370Z,85.02
2022-11-20T10:03:08.333Z,85.64
2022-11-20T10:04:08.333Z,85.12
2022-11-20T10:05:08.312Z,85.74
2022-11-20T10:06:08.307Z,85.53
2022-11-20T10:07:31.543Z,85.64
2022-11-20T10:08:09.281Z,85.02
2022-11-20T10:09:08.267Z,85.78
2022-11-20T10:10:08.251Z,85.33
2022-11-20T10:11:08.245Z,85.64
2022-11-20T10:12:08.261Z,86.06
2022-11-20T10:13:08.225Z,86.06
2022-11-20T10:14:08.210Z,86.06
2022-11-20T10:15:08.212Z,85.08
2022-11-20T10:16:08.186Z,85.08
2022-11-20T10:17:08.176Z,85.60
2022-11-20T10:18:08.195Z,85.19
2022-11-20T10:19:08.156Z,85.81
2022-11-20T10:20:08.147Z,85.81
2022-11-20T10:21:08.156Z,85.60
2022-11-20T10:22:08.120Z,85.56
2022-11-20T10:23:08.113Z,84.94
2022-11-20T10:24:08.111Z,84.90
2022-11-20T10:25:08.095Z,85.63
2022-11-20T10:26:08.076Z,84.75
2022-11-20T10:27:08.095Z,83.96
2022-11-20T10:28:08.065Z,83.72
2022-11-20T10:29:09.086Z,83.82
2022-11-20T10:30:08.050Z,82.57
2022-11-20T10:31:08.032Z,82.46
2022-11-20T10:32:08.010Z,82.53
2022-11-20T10:33:08.012Z,82.12
2022-11-20T10:34:12.390Z,82.43
2022-11-20T10:35:07.982Z,82.43
2022-11-20T10:36:07.996Z,81.67
2022-11-20T10:37:07.961Z,81.35
2022-11-20T10:38:07.966Z,80.83
2022-11-20T10:39:07.948Z,81.04
2022-11-20T10:40:07.922Z,80.90
2022-11-20T10:41:07.930Z,81.01
2022-11-20T10:42:07.908Z,80.69
2022-11-20T10:43:07.898Z,80.35
2022-11-20T10:44:07.896Z,79.55
2022-11-20T10:45:07.867Z,79.34
2022-11-20T10:46:07.859Z,79.24
2022-11-20T10:47:07.866Z,79.20
2022-11-20T10:48:07.836Z,78.78
2022-11-20T10:49:07.833Z,79.10
2022-11-20T10:50:07.821Z,78.55
2022-11-20T10:51:07.802Z,77.51
2022-11-20T10:52:07.794Z,77.20
2022-11-20T10:53:07.777Z,77.20
2022-11-20T10:54:07.787Z,76.89
2022-11-20T10:55:07.788Z,76.68
2022-11-20T10:56:07.752Z,77.16
2022-11-20T10:57:07.738Z,75.19
2022-11-20T10:58:07.731Z,75.50
2022-11-20T10:59:07.727Z,74.67
2022-11-20T11:00:07.713Z,74.46
2022-11-20T11:01:07.773Z,74.05
2022-11-20T11:02:07.687Z,74.57
2022-11-20T11:03:07.671Z,74.11
2022-11-20T11:04:07.673Z,73.80
2022-11-20T11:05:11.689Z,73.91
2022-11-20T11:06:08.653Z,73.28
2022-11-20T11:07:07.661Z,74.01
2022-11-20T11:08:07.621Z,74.19
2022-11-20T11:09:07.603Z,74.11
2022-11-20T11:10:07.608Z,73.57
2022-11-20T11:11:07.595Z,72.84
2022-11-20T11:12:07.596Z,72.81
2022-11-20T11:13:07.562Z,71.77
2022-11-20T11:14:07.558Z,71.98
2022-11-20T11:15:07.548Z,71.98
2022-11-20T11:16:07.535Z,71.73
2022-11-20T11:17:07.522Z,70.91
2022-11-20T11:18:07.514Z,70.91
2022-11-20T11:19:07.534Z,70.87
2022-11-20T11:20:07.499Z,70.50
2022-11-20T11:21:07.475Z,70.87
2022-11-20T11:22:07.466Z,71.22
2022-11-20T11:23:07.455Z,70.77
2022-11-20T11:24:34.893Z,70.47
2022-11-20T11:25:08.450Z,70.36
2022-11-20T11:26:07.423Z,70.77
2022-11-20T11:27:09.264Z,71.70
2022-11-20T11:28:07.405Z,72.05
2022-11-20T11:29:07.397Z,72.56
2022-11-20T11:30:07.379Z,72.88
2022-11-20T11:31:07.379Z,72.88
2022-11-20T11:32:07.359Z,73.50
2022-11-20T11:33:07.344Z,74.05
2022-11-20T11:34:07.342Z,74.26
2022-11-20T11:35:07.327Z,74.57
2022-11-20T11:36:07.330Z,73.74
2022-11-20T11:37:07.311Z,74.46
2022-11-20T11:38:07.292Z,74.77
2022-11-20T11:39:07.278Z,74.57
2022-11-20T11:40:24.389Z,74.88
2022-11-20T11:41:08.300Z,74.19
2022-11-20T11:42:07.249Z,75.40
2022-11-20T11:43:07.236Z,75.63
2022-11-20T11:44:07.227Z,74.98
2022-11-20T11:45:07.234Z,74.91
2022-11-20T11:46:07.217Z,74.32
2022-11-20T11:47:07.207Z,74.63
2022-11-20T11:48:07.184Z,74.91
2022-11-20T11:49:07.183Z,74.63
2022-11-20T11:50:07.160Z,75.78
2022-11-20T11:51:07.173Z,76.09
2022-11-20T11:52:07.140Z,76.29
2022-11-20T11:53:07.143Z,76.81
2022-11-20T11:54:07.122Z,76.85
2022-11-20T11:55:11.541Z,76.64
2022-11-20T11:56:07.105Z,77.16
2022-11-20T11:57:07.089Z,77.99
2022-11-20T11:58:07.082Z,78.41
2022-11-20T11:59:07.072Z,78.41
2022-11-20T12:00:07.054Z,78.72
2022-11-20T12:01:07.059Z,78.30
2022-11-20T12:02:07.082Z,78.27
2022-11-20T12:03:07.028Z,78.16
2022-11-20T12:04:07.020Z,78.16
2022-11-20T12:05:06.996Z,77.75
2022-11-20T12:06:06.995Z,77.75
2022-11-20T12:07:31.022Z,76.92
2022-11-20T12:08:12.409Z,76.92
2022-11-20T12:09:06.964Z,77.33
2022-11-20T12:10:06.961Z,77.47
2022-11-20T12:11:06.943Z,77.58
2022-11-20T12:12:06.942Z,77.58
2022-11-20T12:13:06.907Z,77.99
2022-11-20T12:14:06.911Z,77.58
2022-11-20T12:15:06.888Z,78.20
2022-11-20T12:16:06.880Z,78.30
2022-11-20T12:17:06.901Z,78.44
2022-11-20T12:18:06.864Z,78.55
2022-11-20T12:19:06.856Z,78.13
2022-11-20T12:20:06.843Z,78.23
2022-11-20T12:21:06.823Z,78.03
2022-11-20T12:22:06.822Z,78.65
2022-11-20T12:23:06.808Z,78.44
2022-11-20T12:24:06.861Z,78.65
2022-11-20T12:25:06.781Z,79.06
2022-11-20T12:26:06.780Z,78.55
2022-11-20T12:27:06.760Z,78.03
2022-11-20T12:28:06.751Z,77.72
2022-11-20T12:29:06.736Z,77.92
2022-11-20T12:30:06.746Z,77.72
2022-11-20T12:31:06.715Z,77.72
2022-11-20T12:32:06.708Z,77.09
2022-11-20T12:33:06.694Z,77.20
2022-11-20T12:34:06.685Z,77.51
2022-11-20T12:35:11.321Z,77.40
2022-11-20T12:36:06.677Z,76.89
2022-11-20T12:37:06.650Z,76.78
2022-11-20T12:38:06.647Z,76.99
2022-11-20T12:39:06.650Z,76.75
2022-11-20T12:40:06.622Z,76.47
2022-11-20T12:41:06.614Z,77.20
2022-11-20T12:42:06.611Z,77.09
2022-11-20T12:43:06.588Z,77.30
2022-11-20T12:44:06.575Z,76.89
2022-11-20T12:45:06.571Z,76.89
2022-11-20T12:46:06.559Z,77.09
2022-11-20T12:47:06.537Z,76.99
2022-11-20T12:48:06.546Z,76.78
2022-11-20T12:49:06.514Z,76.81
2022-11-20T12:50:06.524Z,76.89
2022-11-20T12:51:15.455Z,76.89
2022-11-20T12:52:07.494Z,76.89